Airfield :
LOGIN :

Register | Disclaimer

   EN    FR    IT 

 










Legend :    VFR   Marginal VFR   IFR   Intensive IFR   Very Intensive IFR
Visi :
Ceiling :
>= 8 km
>= 3000ft
5 to 8 km
1000 to 3000 ft
1500m to 5 km
500 to 1000 ft
800 to 1500m
200 to 500 ft
< 800m
< 200 ft
Symbols :   Thunderstorms  Fog  Heavy snow  Heavy precipitations  Wind > 20 kt
SIGMETs :     Misc.  Thunderstorms  Icing  Turbulence  Mountain Waves  Volcanic Ashes







- Airport Elevation : 26 ft
- IATA code : BIA
- Download approach charts


LFKB - Bastia

CURRENT METAR :
  • 201230Z AUTO 10007KT 050V150 9999 SCT064 SCT090 18/09 Q1008 TEMPO SHRA SCT020CB BKN033

EXPIRED METARs :
  • 201200Z AUTO 10008KT 060V160 9999 FEW044 19/10 Q1008 TEMPO SHRA SCT020CB BKN033
  • 201130Z AUTO 11008KT 070V140 9999 FEW038 19/10 Q1007 TEMPO SHRA SCT020CB BKN033
  • 201100Z AUTO 10009KT 070V140 9999 FEW034 SCT054 19/12 Q1007 TEMPO SHRA SCT020CB BKN033
  • 201030Z AUTO 08008KT 050V120 9999 FEW018 SCT030 BKN042 19/14 Q1007 TEMPO SHRA SCT020CB BKN033
  • 201000Z AUTO 10008KT 070V130 9999 FEW018 BKN027 BKN033 19/13 Q1007 TEMPO SHRA SCT020CB BKN033

TAF TAF LFKB
Valid from the 20 at 09:00 until the 21 at 09:00 UTC


200800Z 2009/2109 12010KT 9999 SCT030 TX20/2012Z TN11/2103Z
TEMPO 2011/2015 04010KT SHRA SCT020CB BKN033
BECMG 2017/2020 24005KT SCT030
ATIS : +33 4 95 59 19 40
No reported NOTAMs for that airfield.



MET'MAP, your aeronautical weather chart ! - Copyright ORBIFLY December 2007 - Disclaimer

ORBIFLY MET'MAP TEAM :

Programming & Development : Alexandra Zaïnal
Concept & Development : Baudouin d'Aumeries
Co-Development & Prog : Marc-Olivier Méhu
Technical & hardware support : Manuel Goepfert

Contact : metmap@orbifly.com




SOURCES & CREDITS :

   NOAA